createdAt,value
2018-10-16T00:01:05.777Z,25.23
2018-10-16T00:03:34.383Z,22.37
2018-10-16T00:06:03.146Z,25.43
2018-10-16T00:08:31.601Z,25.13
2018-10-16T00:11:00.151Z,24.70
2018-10-16T00:13:28.661Z,24.10
2018-10-16T00:16:03.981Z,22.47
2018-10-16T00:18:32.597Z,22.27
2018-10-16T00:21:00.902Z,22.50
2018-10-16T00:23:29.567Z,23.43
2018-10-16T00:25:58.461Z,23.10
2018-10-16T00:28:26.813Z,22.20
2018-10-16T00:30:55.287Z,23.50
2018-10-16T00:33:23.911Z,21.83
2018-10-16T00:35:52.235Z,20.23
2018-10-16T00:38:21.036Z,21.87
2018-10-16T00:40:49.806Z,21.67
2018-10-16T00:43:18.106Z,22.87
2018-10-16T00:45:47.019Z,22.77
2018-10-16T00:48:16.169Z,21.23
2018-10-16T00:50:44.465Z,20.33
2018-10-16T00:53:13.182Z,19.77
2018-10-16T00:55:42.211Z,19.53
2018-10-16T00:58:10.540Z,20.17
2018-10-16T01:00:38.848Z,21.53
2018-10-16T01:03:07.812Z,21.97
2018-10-16T01:05:36.430Z,25.23
2018-10-16T01:08:05.145Z,23.03
2018-10-16T01:10:33.763Z,28.70
2018-10-16T01:13:02.103Z,21.97
2018-10-16T01:15:30.899Z,21.70
2018-10-16T01:17:59.777Z,22.93
2018-10-16T01:20:28.216Z,21.20
2018-10-16T01:22:56.555Z,21.77
2018-10-16T01:25:25.214Z,22.77
2018-10-16T01:27:53.554Z,29.00
2018-10-16T01:30:22.218Z,35.07
2018-10-16T01:32:51.108Z,44.07
2018-10-16T01:35:19.407Z,26.77
2018-10-16T01:37:47.962Z,25.07
2018-10-16T01:40:16.701Z,25.13
2018-10-16T01:42:45.093Z,23.20
2018-10-16T01:45:13.904Z,23.83
2018-10-16T01:47:42.459Z,24.27
2018-10-16T01:50:10.796Z,25.67
2018-10-16T01:52:39.141Z,34.60
2018-10-16T01:55:08.039Z,38.97
2018-10-16T01:57:36.621Z,29.63
2018-10-16T02:00:05.183Z,24.10
2018-10-16T02:02:34.102Z,25.27
2018-10-16T02:05:02.665Z,27.23
2018-10-16T02:07:31.234Z,23.80
2018-10-16T02:09:59.843Z,26.80
2018-10-16T02:12:28.403Z,23.40
2018-10-16T02:14:56.781Z,24.70
2018-10-16T02:17:25.458Z,32.43
2018-10-16T02:19:54.265Z,24.00
2018-10-16T02:22:22.593Z,23.03
2018-10-16T02:24:51.320Z,23.13
2018-10-16T02:27:20.207Z,28.90
2018-10-16T02:29:48.958Z,24.90
2018-10-16T02:32:17.542Z,26.53
2018-10-16T02:34:46.508Z,23.40
2018-10-16T02:37:15.345Z,24.47
2018-10-16T02:39:44.062Z,26.53
2018-10-16T02:42:12.371Z,33.43
2018-10-16T02:44:41.121Z,26.03
2018-10-16T02:47:09.973Z,22.63
2018-10-16T02:49:38.285Z,23.07
2018-10-16T02:52:06.683Z,40.13
2018-10-16T02:54:35.261Z,28.90
2018-10-16T02:57:03.562Z,26.00
2018-10-16T02:59:32.095Z,29.30
2018-10-16T03:02:00.537Z,33.33
2018-10-16T03:04:29.064Z,29.33
2018-10-16T03:06:57.708Z,27.50
2018-10-16T03:09:26.283Z,36.80
2018-10-16T03:11:54.597Z,55.50
2018-10-16T03:14:22.926Z,40.00
2018-10-16T03:16:51.720Z,40.77
2018-10-16T03:19:20.012Z,37.03
2018-10-16T03:21:48.905Z,35.77
2018-10-16T03:24:17.472Z,39.03
2018-10-16T03:26:45.775Z,33.87
2018-10-16T03:29:14.071Z,47.10
2018-10-16T03:31:42.753Z,42.60
2018-10-16T03:34:11.346Z,42.97
2018-10-16T03:36:40.190Z,39.63
2018-10-16T03:39:10.213Z,59.73
2018-10-16T03:41:38.925Z,53.10
2018-10-16T03:44:09.409Z,51.53
2018-10-16T03:46:38.243Z,46.20
2018-10-16T03:49:06.929Z,65.07
2018-10-16T03:51:35.238Z,52.00
2018-10-16T03:54:03.954Z,42.40
2018-10-16T03:56:32.257Z,37.73
2018-10-16T03:59:00.651Z,33.37
2018-10-16T04:01:29.266Z,49.00
2018-10-16T04:03:57.616Z,29.47
2018-10-16T04:06:26.449Z,26.33
2018-10-16T04:08:55.020Z,29.53
2018-10-16T04:11:23.354Z,33.73
2018-10-16T04:13:52.507Z,27.50
2018-10-16T04:16:21.066Z,24.50
2018-10-16T04:18:49.549Z,26.97
2018-10-16T04:21:18.491Z,36.57
2018-10-16T04:23:47.282Z,35.20
2018-10-16T04:26:15.868Z,27.43
2018-10-16T04:28:45.148Z,30.97
2018-10-16T04:31:13.800Z,33.70
2018-10-16T04:33:42.129Z,31.10
2018-10-16T04:36:11.019Z,58.57
2018-10-16T04:38:39.949Z,42.70
2018-10-16T04:41:08.308Z,38.30
2018-10-16T04:43:37.075Z,33.50
2018-10-16T04:46:05.917Z,34.00
2018-10-16T04:48:34.222Z,34.00
2018-10-16T04:51:03.077Z,32.40
2018-10-16T04:53:31.809Z,33.37
2018-10-16T04:56:00.328Z,29.80
2018-10-16T04:58:28.940Z,31.20
2018-10-16T05:00:57.867Z,26.60
2018-10-16T05:03:26.420Z,29.00
2018-10-16T05:05:54.761Z,44.30
2018-10-16T05:08:23.241Z,33.87
2018-10-16T05:10:51.544Z,32.27
2018-10-16T05:13:20.158Z,34.50
2018-10-16T05:15:49.049Z,32.20
2018-10-16T05:18:17.359Z,34.63
2018-10-16T05:20:45.699Z,28.20
2018-10-16T05:23:14.490Z,28.97
2018-10-16T05:25:42.852Z,41.80
2018-10-16T05:28:11.906Z,40.10
2018-10-16T05:30:40.705Z,29.47
2018-10-16T05:33:08.999Z,27.70
2018-10-16T05:35:37.855Z,29.57
2018-10-16T05:38:06.802Z,27.40
2018-10-16T05:40:35.501Z,29.53
2018-10-16T05:43:03.910Z,29.73
2018-10-16T05:45:34.353Z,27.40
2018-10-16T05:48:02.668Z,36.60
2018-10-16T05:50:31.505Z,36.53
2018-10-16T05:53:00.715Z,28.07
2018-10-16T05:55:29.071Z,31.57
2018-10-16T05:57:57.390Z,34.97
2018-10-16T06:00:37.198Z,34.83
2018-10-16T06:03:05.729Z,35.87
2018-10-16T06:05:34.353Z,32.93
2018-10-16T06:08:03.565Z,34.70
2018-10-16T06:10:31.974Z,35.80
2018-10-16T06:13:01.279Z,33.57
2018-10-16T06:15:29.925Z,39.53
2018-10-16T06:17:58.250Z,48.17
2018-10-16T06:20:26.575Z,51.97
2018-10-16T06:22:55.666Z,70.97
2018-10-16T06:25:24.011Z,81.57
2018-10-16T06:27:52.503Z,93.37
2018-10-16T06:30:21.574Z,79.40
2018-10-16T06:32:49.792Z,87.80
2018-10-16T06:35:18.111Z,106.67
2018-10-16T06:37:47.325Z,89.37
2018-10-16T06:40:15.800Z,104.77
2018-10-16T06:42:44.127Z,78.77
2018-10-16T06:45:13.211Z,68.33
2018-10-16T06:47:41.657Z,63.53
2018-10-16T06:50:10.537Z,67.77
2018-10-16T06:52:39.589Z,65.07
2018-10-16T06:55:08.379Z,62.23
2018-10-16T06:57:36.635Z,54.83
2018-10-16T07:00:07.072Z,50.97
2018-10-16T07:02:35.913Z,46.30
2018-10-16T07:05:04.679Z,42.33
2018-10-16T07:07:33.841Z,45.97
2018-10-16T07:10:02.883Z,41.23
2018-10-16T07:12:31.306Z,40.60
2018-10-16T07:15:00.289Z,39.27
2018-10-16T07:17:28.582Z,36.87
2018-10-16T07:19:56.975Z,38.90
2018-10-16T07:22:26.256Z,35.17
2018-10-16T07:24:54.580Z,37.30
2018-10-16T07:27:22.930Z,31.97
2018-10-16T07:29:52.314Z,30.97
2018-10-16T07:32:20.604Z,29.47
2018-10-16T07:34:48.952Z,29.93
2018-10-16T07:37:18.074Z,28.73
2018-10-16T07:39:46.415Z,25.53
2018-10-16T07:42:14.788Z,23.50
2018-10-16T07:44:43.813Z,22.73
2018-10-16T07:47:12.184Z,22.30
2018-10-16T07:49:40.528Z,21.07
2018-10-16T07:52:09.547Z,19.80
2018-10-16T07:54:38.057Z,18.90
2018-10-16T07:57:06.683Z,18.00
2018-10-16T07:59:35.617Z,18.33
2018-10-16T08:02:04.345Z,18.13
2018-10-16T08:04:32.677Z,18.20
2018-10-16T08:07:01.409Z,15.83
2018-10-16T08:09:29.742Z,15.70
2018-10-16T08:11:58.133Z,15.50
2018-10-16T08:14:27.115Z,14.57
2018-10-16T08:16:55.493Z,15.47
2018-10-16T08:19:23.912Z,15.50
2018-10-16T08:21:52.863Z,15.00
2018-10-16T08:24:21.643Z,14.13
2018-10-16T08:26:50.352Z,14.43
2018-10-16T08:29:19.222Z,12.80
2018-10-16T08:31:48.030Z,13.60
2018-10-16T08:34:16.394Z,13.30
2018-10-16T08:36:45.448Z,12.57
2018-10-16T08:39:20.298Z,11.83
2018-10-16T08:42:00.396Z,9.67
2018-10-16T08:44:45.150Z,9.27
2018-10-16T08:47:25.280Z,9.23
2018-10-16T08:50:05.366Z,9.63
2018-10-16T08:52:34.554Z,9.07
2018-10-16T08:55:02.962Z,8.60
2018-10-16T08:57:31.585Z,8.20
2018-10-16T09:00:00.206Z,7.23
2018-10-16T09:02:28.569Z,8.37
2018-10-16T09:04:57.314Z,7.97
2018-10-16T09:07:26.095Z,8.47
2018-10-16T09:09:54.786Z,8.27
2018-10-16T09:12:23.383Z,8.63
2018-10-16T09:14:52.177Z,7.53
2018-10-16T09:17:20.785Z,7.40
2018-10-16T09:19:49.435Z,8.33
2018-10-16T09:22:18.041Z,8.20
2018-10-16T09:24:47.139Z,8.13
2018-10-16T09:27:15.798Z,8.67
2018-10-16T09:29:44.759Z,8.30
2018-10-16T09:32:13.412Z,8.37
2018-10-16T09:34:42.053Z,8.27
2018-10-16T09:37:10.375Z,8.23
2018-10-16T09:39:38.996Z,7.67
2018-10-16T09:42:07.608Z,9.03
2018-10-16T09:44:36.094Z,9.53
2018-10-16T09:47:05.181Z,9.23
2018-10-16T09:49:34.166Z,9.87
2018-10-16T09:52:02.487Z,10.00
2018-10-16T09:54:30.971Z,9.87
2018-10-16T09:56:59.863Z,8.73
2018-10-16T09:59:28.427Z,10.03
2018-10-16T10:01:57.143Z,9.70
2018-10-16T10:04:25.884Z,9.23
2018-10-16T10:06:54.833Z,9.87
2018-10-16T10:09:23.842Z,10.57
2018-10-16T10:11:52.427Z,9.47
2018-10-16T10:14:20.784Z,9.90
2018-10-16T10:16:49.615Z,9.00
2018-10-16T10:19:18.324Z,9.03
2018-10-16T10:21:46.902Z,9.03
2018-10-16T10:24:15.630Z,9.27
2018-10-16T10:26:44.378Z,8.67
2018-10-16T10:29:12.818Z,8.37
2018-10-16T10:31:41.717Z,8.80
2018-10-16T10:34:10.329Z,8.60
2018-10-16T10:36:38.775Z,9.63
2018-10-16T10:39:09.389Z,9.20
2018-10-16T10:41:38.331Z,8.60
2018-10-16T10:44:07.155Z,9.03
2018-10-16T10:46:36.273Z,8.30
2018-10-16T10:49:05.165Z,8.53
2018-10-16T10:51:33.726Z,8.43
2018-10-16T10:54:02.534Z,8.47
2018-10-16T10:56:31.290Z,8.30
2018-10-16T10:58:59.582Z,8.37
2018-10-16T11:01:28.801Z,9.03
2018-10-16T11:03:57.270Z,8.23
2018-10-16T11:06:26.053Z,8.80
2018-10-16T11:08:54.649Z,8.23
2018-10-16T11:11:23.321Z,8.20
2018-10-16T11:13:51.630Z,9.70
2018-10-16T11:16:20.081Z,8.30
2018-10-16T11:18:48.927Z,8.00
2018-10-16T11:21:17.285Z,8.03
2018-10-16T11:23:46.417Z,8.20
2018-10-16T11:26:15.271Z,8.47
2018-10-16T11:28:44.093Z,7.83
2018-10-16T11:31:13.129Z,8.43
2018-10-16T11:33:41.798Z,8.40
2018-10-16T11:36:10.189Z,8.00
2018-10-16T11:38:38.799Z,8.20
2018-10-16T11:41:07.392Z,7.73
2018-10-16T11:43:35.745Z,7.90
2018-10-16T11:46:04.841Z,7.50
2018-10-16T11:48:33.598Z,7.80
2018-10-16T11:51:01.887Z,7.50
2018-10-16T11:53:30.562Z,7.43
2018-10-16T11:55:59.411Z,7.87
2018-10-16T11:58:28.107Z,6.60
2018-10-16T12:00:56.850Z,7.70
2018-10-16T12:03:25.723Z,7.63
2018-10-16T12:05:54.227Z,7.70
2018-10-16T12:08:23.486Z,7.33
2018-10-16T12:10:52.333Z,6.90
2018-10-16T12:13:21.110Z,7.40
2018-10-16T12:15:49.834Z,7.03
2018-10-16T12:18:23.358Z,6.90
2018-10-16T12:20:58.530Z,7.73
2018-10-16T12:23:27.318Z,6.80
2018-10-16T12:25:55.937Z,6.80
2018-10-16T12:28:24.285Z,6.53
2018-10-16T12:30:53.218Z,6.73
2018-10-16T12:33:22.308Z,6.40
2018-10-16T12:35:50.709Z,6.73
2018-10-16T12:38:19.309Z,6.40
2018-10-16T12:40:47.901Z,5.97
2018-10-16T12:43:16.730Z,6.13
2018-10-16T12:45:45.641Z,6.10
2018-10-16T12:48:14.172Z,5.93
2018-10-16T12:50:42.464Z,6.50
2018-10-16T12:53:11.257Z,6.03
2018-10-16T12:55:39.562Z,5.67
2018-10-16T12:58:08.034Z,5.80
2018-10-16T13:00:36.657Z,6.00
2018-10-16T13:03:05.435Z,6.40
2018-10-16T13:05:34.299Z,5.47
2018-10-16T13:08:02.931Z,5.77
2018-10-16T13:10:31.673Z,5.43
2018-10-16T13:13:00.241Z,5.30
2018-10-16T13:15:29.077Z,6.07
2018-10-16T13:17:57.426Z,6.13
2018-10-16T13:20:26.077Z,4.80
2018-10-16T13:22:55.136Z,5.10
2018-10-16T13:25:24.092Z,4.23
2018-10-16T13:27:52.507Z,4.30
2018-10-16T13:30:21.644Z,4.03
2018-10-16T13:32:50.742Z,4.20
2018-10-16T13:35:20.368Z,3.73
2018-10-16T13:37:49.539Z,3.97
2018-10-16T13:40:18.157Z,3.17
2018-10-16T13:42:46.825Z,3.10
2018-10-16T13:45:16.520Z,3.17
2018-10-16T13:47:45.343Z,3.00
2018-10-16T13:50:14.897Z,2.90
2018-10-16T13:52:43.798Z,3.07
2018-10-16T13:55:12.517Z,3.10
2018-10-16T13:57:41.362Z,3.00
2018-10-16T14:00:17.675Z,3.10
2018-10-16T14:02:47.032Z,2.87
2018-10-16T14:05:15.543Z,2.60
2018-10-16T14:07:44.664Z,3.10
2018-10-16T14:10:14.319Z,3.57
2018-10-16T14:12:43.627Z,2.90
2018-10-16T14:15:13.133Z,2.57
2018-10-16T14:17:41.535Z,2.97
2018-10-16T14:20:10.334Z,3.20
2018-10-16T14:22:40.325Z,2.93
2018-10-16T14:25:10.132Z,2.67
2018-10-16T14:27:38.921Z,2.43
2018-10-16T14:30:08.820Z,2.57
2018-10-16T14:32:37.153Z,2.77
2018-10-16T14:35:06.344Z,2.43
2018-10-16T14:37:35.503Z,2.73
2018-10-16T14:40:04.101Z,2.60
2018-10-16T14:42:32.633Z,2.33
2018-10-16T14:45:01.388Z,2.37
2018-10-16T14:47:30.231Z,2.47
2018-10-16T14:49:58.583Z,2.33
2018-10-16T14:52:27.297Z,2.20
2018-10-16T14:54:56.198Z,2.77
2018-10-16T14:57:24.688Z,3.17
2018-10-16T14:59:53.353Z,2.70
2018-10-16T15:02:22.860Z,2.67
2018-10-16T15:04:51.419Z,2.57
2018-10-16T15:07:20.024Z,2.40
2018-10-16T15:09:48.991Z,2.43
2018-10-16T15:12:17.262Z,2.57
2018-10-16T15:14:45.855Z,2.00
2018-10-16T15:17:14.681Z,2.20
2018-10-16T15:19:43.027Z,2.30
2018-10-16T15:22:11.868Z,1.97
2018-10-16T15:24:40.749Z,1.80
2018-10-16T15:27:09.141Z,1.90
2018-10-16T15:29:37.880Z,1.97
2018-10-16T15:32:06.664Z,1.87
2018-10-16T15:34:35.084Z,1.83
2018-10-16T15:37:03.769Z,1.60
2018-10-16T15:39:32.283Z,1.77
2018-10-16T15:42:01.202Z,1.63
2018-10-16T15:44:29.823Z,1.47
2018-10-16T15:46:59.071Z,1.93
2018-10-16T15:49:27.404Z,1.50
2018-10-16T15:51:56.221Z,1.90
2018-10-16T15:54:24.947Z,2.40
2018-10-16T15:56:53.427Z,2.17
2018-10-16T15:59:22.085Z,2.60
2018-10-16T16:01:50.928Z,2.47
2018-10-16T16:04:19.280Z,2.13
2018-10-16T16:06:48.600Z,2.27
2018-10-16T16:09:17.481Z,1.90
2018-10-16T16:11:45.810Z,2.00
2018-10-16T16:14:14.709Z,2.07
2018-10-16T16:16:43.646Z,2.03
2018-10-16T16:19:12.263Z,2.77
2018-10-16T16:21:40.875Z,2.70
2018-10-16T16:24:09.828Z,2.67
2018-10-16T16:26:38.178Z,2.77
2018-10-16T16:29:07.071Z,3.20
2018-10-16T16:31:36.010Z,3.30
2018-10-16T16:34:04.754Z,3.23
2018-10-16T16:36:33.293Z,3.73
2018-10-16T16:39:01.886Z,3.17
2018-10-16T16:41:30.386Z,3.80
2018-10-16T16:43:59.059Z,4.27
2018-10-16T16:46:27.908Z,3.30
2018-10-16T16:48:56.281Z,3.87
2018-10-16T16:51:24.774Z,3.60
2018-10-16T16:53:53.567Z,4.10
2018-10-16T16:56:22.131Z,3.40
2018-10-16T16:58:50.981Z,3.50
2018-10-16T17:01:19.914Z,3.50
2018-10-16T17:03:48.493Z,3.23
2018-10-16T17:06:17.342Z,3.90
2018-10-16T17:08:46.099Z,4.07
2018-10-16T17:11:14.579Z,3.70
2018-10-16T17:13:43.396Z,3.90
2018-10-16T17:16:12.656Z,3.63
2018-10-16T17:18:40.914Z,3.40
2018-10-16T17:21:09.756Z,4.23
2018-10-16T17:23:38.243Z,3.40
2018-10-16T17:26:07.259Z,3.90
2018-10-16T17:28:35.652Z,3.80
2018-10-16T17:31:04.283Z,3.50
2018-10-16T17:33:32.668Z,3.70
2018-10-16T17:36:01.421Z,3.40
2018-10-16T17:38:30.427Z,3.30
2018-10-16T17:40:58.741Z,3.10
2018-10-16T17:43:27.461Z,3.70
2018-10-16T17:45:56.339Z,3.83
2018-10-16T17:48:25.081Z,3.20
2018-10-16T17:50:53.855Z,3.17
2018-10-16T17:53:22.745Z,3.47
2018-10-16T17:55:51.070Z,3.00
2018-10-16T17:58:19.721Z,2.97
2018-10-16T18:00:48.668Z,3.10
2018-10-16T18:03:16.975Z,3.37
2018-10-16T18:05:46.082Z,3.17
2018-10-16T18:08:14.711Z,3.70
2018-10-16T18:10:43.064Z,3.10
2018-10-16T18:13:11.827Z,3.13
2018-10-16T18:15:40.779Z,3.47
2018-10-16T18:18:09.376Z,3.50
2018-10-16T18:20:38.189Z,3.03
2018-10-16T18:23:07.129Z,3.43
2018-10-16T18:25:35.758Z,3.33
2018-10-16T18:28:04.552Z,3.27
2018-10-16T18:30:33.200Z,4.00
2018-10-16T18:33:01.842Z,3.50
2018-10-16T18:35:30.607Z,3.13
2018-10-16T18:37:59.300Z,3.63
2018-10-16T18:40:27.626Z,3.37
2018-10-16T18:42:56.352Z,2.90
2018-10-16T18:45:25.038Z,3.33
2018-10-16T18:47:53.381Z,3.47
2018-10-16T18:50:21.957Z,3.63
2018-10-16T18:52:50.967Z,3.33
2018-10-16T18:55:19.298Z,3.40
2018-10-16T18:57:48.154Z,3.77
2018-10-16T19:00:17.862Z,3.40
2018-10-16T19:02:47.143Z,3.80
2018-10-16T19:05:15.603Z,3.73
2018-10-16T19:07:44.423Z,3.30
2018-10-16T19:10:12.746Z,3.57
2018-10-16T19:12:42.304Z,3.30
2018-10-16T19:15:12.714Z,3.67
2018-10-16T19:17:41.834Z,3.77
2018-10-16T19:20:11.773Z,3.80
2018-10-16T19:22:40.269Z,3.80
2018-10-16T19:25:09.992Z,4.07
2018-10-16T19:27:38.684Z,4.07
2018-10-16T19:30:08.735Z,3.70
2018-10-16T19:32:37.288Z,4.07
2018-10-16T19:35:06.415Z,3.60
2018-10-16T19:37:34.823Z,3.60
2018-10-16T19:40:03.306Z,4.07
2018-10-16T19:42:32.327Z,4.33
2018-10-16T19:45:01.170Z,3.93
2018-10-16T19:47:29.941Z,4.07
2018-10-16T19:49:58.993Z,4.47
2018-10-16T19:52:27.584Z,4.50
2018-10-16T19:54:55.909Z,4.57
2018-10-16T19:57:24.742Z,4.80
2018-10-16T19:59:53.711Z,4.57
2018-10-16T20:02:21.992Z,4.97
2018-10-16T20:04:50.645Z,4.67
2018-10-16T20:07:19.612Z,5.10
2018-10-16T20:09:48.218Z,4.37
2018-10-16T20:12:17.169Z,5.10
2018-10-16T20:14:45.935Z,4.10
2018-10-16T20:17:14.360Z,4.97
2018-10-16T20:19:43.127Z,4.87
2018-10-16T20:22:12.335Z,4.77
2018-10-16T20:24:40.984Z,4.77
2018-10-16T20:27:09.556Z,4.90
2018-10-16T20:29:38.154Z,4.97
2018-10-16T20:32:06.467Z,4.77
2018-10-16T20:34:34.999Z,4.73
2018-10-16T20:37:03.914Z,5.17
2018-10-16T20:39:32.241Z,4.33
2018-10-16T20:42:01.255Z,4.87
2018-10-16T20:44:30.154Z,4.70
2018-10-16T20:46:58.464Z,5.23
2018-10-16T20:49:27.108Z,5.07
2018-10-16T20:51:55.965Z,5.00
2018-10-16T20:54:24.440Z,5.27
2018-10-16T20:56:53.170Z,5.13
2018-10-16T20:59:21.929Z,4.57
2018-10-16T21:01:50.275Z,5.00
2018-10-16T21:04:19.373Z,4.83
2018-10-16T21:06:48.113Z,4.50
2018-10-16T21:09:16.398Z,4.67
2018-10-16T21:11:45.262Z,5.30
2018-10-16T21:14:13.880Z,5.03
2018-10-16T21:16:42.226Z,5.07
2018-10-16T21:19:11.091Z,5.37
2018-10-16T21:21:39.804Z,5.30
2018-10-16T21:24:08.415Z,5.00
2018-10-16T21:26:37.227Z,5.43
2018-10-16T21:29:05.901Z,5.60
2018-10-16T21:31:34.201Z,5.53
2018-10-16T21:34:02.979Z,5.77
2018-10-16T21:36:31.860Z,5.67
2018-10-16T21:39:00.210Z,5.40
2018-10-16T21:41:28.870Z,5.93
2018-10-16T21:43:57.356Z,5.23
2018-10-16T21:46:25.667Z,4.73
2018-10-16T21:48:54.665Z,5.47
2018-10-16T21:51:23.424Z,6.00
2018-10-16T21:53:51.725Z,5.60
2018-10-16T21:56:20.827Z,5.47
2018-10-16T21:58:49.192Z,5.20
2018-10-16T22:01:17.968Z,4.97
2018-10-16T22:03:47.192Z,5.43
2018-10-16T22:06:15.540Z,5.00
2018-10-16T22:08:44.027Z,5.30
2018-10-16T22:11:12.975Z,6.17
2018-10-16T22:13:41.422Z,6.17
2018-10-16T22:16:09.970Z,5.73
2018-10-16T22:18:38.687Z,5.90
2018-10-16T22:21:07.941Z,5.57
2018-10-16T22:23:36.362Z,6.03
2018-10-16T22:26:05.442Z,6.50
2018-10-16T22:28:33.756Z,5.83
2018-10-16T22:31:02.323Z,5.87
2018-10-16T22:33:31.080Z,5.97
2018-10-16T22:35:59.415Z,6.37
2018-10-16T22:38:28.076Z,5.77
2018-10-16T22:40:56.901Z,6.50
2018-10-16T22:43:25.578Z,7.63
2018-10-16T22:45:53.808Z,6.83
2018-10-16T22:48:22.593Z,6.77
2018-10-16T22:50:51.799Z,7.33
2018-10-16T22:53:20.122Z,8.40
2018-10-16T22:55:48.957Z,7.87
2018-10-16T22:58:17.824Z,7.93
2018-10-16T23:00:46.138Z,7.47
2018-10-16T23:03:14.530Z,8.20
2018-10-16T23:05:43.654Z,8.00
2018-10-16T23:08:12.331Z,7.60
2018-10-16T23:10:40.912Z,8.00
2018-10-16T23:13:09.503Z,6.90
2018-10-16T23:15:37.776Z,7.03
2018-10-16T23:18:06.497Z,8.23
2018-10-16T23:20:35.217Z,7.93
2018-10-16T23:23:03.571Z,8.00
2018-10-16T23:25:32.422Z,9.23
2018-10-16T23:28:01.002Z,8.70
2018-10-16T23:30:29.330Z,9.70
2018-10-16T23:32:58.000Z,10.20
2018-10-16T23:35:26.784Z,9.73
2018-10-16T23:37:55.074Z,10.63
2018-10-16T23:40:24.532Z,11.07
2018-10-16T23:42:53.028Z,11.37
2018-10-16T23:45:21.395Z,11.30
2018-10-16T23:47:50.263Z,10.57
2018-10-16T23:50:19.177Z,11.27
2018-10-16T23:52:47.508Z,11.87
2018-10-16T23:55:16.870Z,11.37
2018-10-16T23:57:45.114Z,11.17
